sensor_id;sensor_type;location;lat;lon;timestamp;P1;P2;P0
79038;PMS5003;68436;55.068;73.284;2024-03-02T00:00:19;5.00;5.00;2.00
79038;PMS5003;68436;55.068;73.284;2024-03-02T00:02:47;3.67;3.00;1.67
79038;PMS5003;68436;55.068;73.284;2024-03-02T00:05:14;3.75;3.50;2.00
79038;PMS5003;68436;55.068;73.284;2024-03-02T00:07:45;3.00;3.00;1.00
79038;PMS5003;68436;55.068;73.284;2024-03-02T00:10:14;3.00;3.00;2.00
79038;PMS5003;68436;55.068;73.284;2024-03-02T00:12:44;3.00;2.00;1.00
79038;PMS5003;68436;55.068;73.284;2024-03-02T00:17:57;3.50;3.00;2.00
79038;PMS5003;68436;55.068;73.284;2024-03-02T00:20:24;4.00;3.00;2.25
79038;PMS5003;68436;55.068;73.284;2024-03-02T00:22:55;6.00;5.00;2.50
79038;PMS5003;68436;55.068;73.284;2024-03-02T00:25:24;6.00;4.00;3.00
79038;PMS5003;68436;55.068;73.284;2024-03-02T00:27:51;4.00;4.00;3.00
79038;PMS5003;68436;55.068;73.284;2024-03-02T00:32:55;4.00;4.00;2.00
79038;PMS5003;68436;55.068;73.284;2024-03-02T00:35:21;5.50;4.50;3.00
79038;PMS5003;68436;55.068;73.284;2024-03-02T00:37:48;5.75;5.00;3.00
79038;PMS5003;68436;55.068;73.284;2024-03-02T00:40:14;4.00;4.00;3.00
79038;PMS5003;68436;55.068;73.284;2024-03-02T00:42:44;5.00;4.00;2.00
79038;PMS5003;68436;55.068;73.284;2024-03-02T00:45:10;6.00;4.75;3.00
79038;PMS5003;68436;55.068;73.284;2024-03-02T00:47:44;4.00;3.00;2.00
79038;PMS5003;68436;55.068;73.284;2024-03-02T00:50:10;5.00;4.00;2.00
79038;PMS5003;68436;55.068;73.284;2024-03-02T00:52:44;4.00;4.00;3.00
79038;PMS5003;68436;55.068;73.284;2024-03-02T00:55:11;3.00;3.00;2.00
79038;PMS5003;68436;55.068;73.284;2024-03-02T00:57:44;5.00;4.00;2.00
79038;PMS5003;68436;55.068;73.284;2024-03-02T01:00:11;4.25;4.00;3.00
79038;PMS5003;68436;55.068;73.284;2024-03-02T01:02:44;4.00;3.00;2.00
79038;PMS5003;68436;55.068;73.284;2024-03-02T01:05:12;3.00;3.00;2.00
79038;PMS5003;68436;55.068;73.284;2024-03-02T01:07:44;4.00;3.00;2.00
79038;PMS5003;68436;55.068;73.284;2024-03-02T01:10:10;2.75;2.25;2.00
79038;PMS5003;68436;55.068;73.284;2024-03-02T01:12:44;5.67;5.00;2.00
79038;PMS5003;68436;55.068;73.284;2024-03-02T01:15:10;3.00;3.00;2.00
79038;PMS5003;68436;55.068;73.284;2024-03-02T01:17:44;3.00;3.00;2.00
79038;PMS5003;68436;55.068;73.284;2024-03-02T01:20:10;5.00;4.00;2.00
79038;PMS5003;68436;55.068;73.284;2024-03-02T01:22:44;4.67;4.00;3.00
79038;PMS5003;68436;55.068;73.284;2024-03-02T01:25:10;5.00;4.00;2.00
79038;PMS5003;68436;55.068;73.284;2024-03-02T01:27:44;4.67;4.00;2.00
79038;PMS5003;68436;55.068;73.284;2024-03-02T01:30:10;3.00;3.00;2.00
79038;PMS5003;68436;55.068;73.284;2024-03-02T01:32:44;4.00;3.00;2.00
79038;PMS5003;68436;55.068;73.284;2024-03-02T01:35:10;4.00;3.00;2.00
79038;PMS5003;68436;55.068;73.284;2024-03-02T01:37:54;3.00;3.00;2.00
79038;PMS5003;68436;55.068;73.284;2024-03-02T01:40:20;3.00;3.00;2.00
79038;PMS5003;68436;55.068;73.284;2024-03-02T01:42:52;3.75;3.00;2.00
79038;PMS5003;68436;55.068;73.284;2024-03-02T01:45:20;5.00;3.00;2.00
79038;PMS5003;68436;55.068;73.284;2024-03-02T01:47:46;6.00;4.00;2.00
79038;PMS5003;68436;55.068;73.284;2024-03-02T01:50:12;5.00;4.00;2.00
79038;PMS5003;68436;55.068;73.284;2024-03-02T01:52:44;5.00;3.00;2.00
79038;PMS5003;68436;55.068;73.284;2024-03-02T01:55:10;4.00;3.00;2.00
79038;PMS5003;68436;55.068;73.284;2024-03-02T01:57:44;4.00;4.00;2.00
79038;PMS5003;68436;55.068;73.284;2024-03-02T02:00:10;3.00;3.00;2.00
79038;PMS5003;68436;55.068;73.284;2024-03-02T02:02:44;4.00;3.00;2.00
79038;PMS5003;68436;55.068;73.284;2024-03-02T02:05:10;4.00;3.00;2.00
79038;PMS5003;68436;55.068;73.284;2024-03-02T02:07:44;4.00;4.00;2.00
79038;PMS5003;68436;55.068;73.284;2024-03-02T02:10:10;6.00;4.00;2.50
79038;PMS5003;68436;55.068;73.284;2024-03-02T02:12:44;3.00;3.00;2.00
79038;PMS5003;68436;55.068;73.284;2024-03-02T02:15:26;3.50;3.00;2.00
79038;PMS5003;68436;55.068;73.284;2024-03-02T02:17:53;2.00;2.00;1.00
79038;PMS5003;68436;55.068;73.284;2024-03-02T02:20:20;4.00;4.00;3.00
79038;PMS5003;68436;55.068;73.284;2024-03-02T02:25:24;2.50;2.00;1.00
79038;PMS5003;68436;55.068;73.284;2024-03-02T02:27:50;4.00;3.00;2.00
79038;PMS5003;68436;55.068;73.284;2024-03-02T02:30:23;3.00;3.00;2.00
79038;PMS5003;68436;55.068;73.284;2024-03-02T02:32:49;5.00;3.00;2.00
79038;PMS5003;68436;55.068;73.284;2024-03-02T02:35:16;3.00;3.00;2.00
79038;PMS5003;68436;55.068;73.284;2024-03-02T02:37:45;4.00;3.00;2.00
79038;PMS5003;68436;55.068;73.284;2024-03-02T02:40:11;4.25;4.00;2.00
79038;PMS5003;68436;55.068;73.284;2024-03-02T02:42:44;4.00;3.00;2.00
79038;PMS5003;68436;55.068;73.284;2024-03-02T02:45:10;4.00;3.25;2.00
79038;PMS5003;68436;55.068;73.284;2024-03-02T02:47:44;3.00;2.50;2.00
79038;PMS5003;68436;55.068;73.284;2024-03-02T02:50:11;5.00;4.00;2.00
79038;PMS5003;68436;55.068;73.284;2024-03-02T02:52:44;3.00;3.00;2.00
79038;PMS5003;68436;55.068;73.284;2024-03-02T02:55:11;4.00;3.00;2.00
79038;PMS5003;68436;55.068;73.284;2024-03-02T02:57:44;2.67;2.00;1.00
79038;PMS5003;68436;55.068;73.284;2024-03-02T03:00:12;3.00;2.25;1.00
79038;PMS5003;68436;55.068;73.284;2024-03-02T03:02:47;2.00;2.00;2.00
79038;PMS5003;68436;55.068;73.284;2024-03-02T03:05:14;2.75;2.25;1.00
79038;PMS5003;68436;55.068;73.284;2024-03-02T03:07:44;2.00;2.00;1.00
79038;PMS5003;68436;55.068;73.284;2024-03-02T03:10:10;3.00;2.00;2.00
79038;PMS5003;68436;55.068;73.284;2024-03-02T03:12:44;2.00;2.00;1.00
79038;PMS5003;68436;55.068;73.284;2024-03-02T03:15:10;2.00;2.00;2.00
79038;PMS5003;68436;55.068;73.284;2024-03-02T03:17:44;4.00;3.00;1.00
79038;PMS5003;68436;55.068;73.284;2024-03-02T03:20:12;3.00;2.00;2.00
79038;PMS5003;68436;55.068;73.284;2024-03-02T03:22:44;3.00;3.00;2.00
79038;PMS5003;68436;55.068;73.284;2024-03-02T03:25:10;3.00;2.00;1.00
79038;PMS5003;68436;55.068;73.284;2024-03-02T03:27:44;3.00;3.00;2.00
79038;PMS5003;68436;55.068;73.284;2024-03-02T03:30:11;3.00;3.00;2.00
79038;PMS5003;68436;55.068;73.284;2024-03-02T03:32:44;4.00;3.50;2.00
79038;PMS5003;68436;55.068;73.284;2024-03-02T03:35:10;3.00;2.75;2.00
79038;PMS5003;68436;55.068;73.284;2024-03-02T03:37:44;3.00;3.00;2.00
79038;PMS5003;68436;55.068;73.284;2024-03-02T03:40:10;4.00;3.00;2.00
79038;PMS5003;68436;55.068;73.284;2024-03-02T03:42:44;3.00;2.00;1.00
79038;PMS5003;68436;55.068;73.284;2024-03-02T03:45:10;5.50;4.00;2.00
79038;PMS5003;68436;55.068;73.284;2024-03-02T03:47:44;2.00;2.00;1.00
79038;PMS5003;68436;55.068;73.284;2024-03-02T03:50:10;3.00;3.00;2.00
79038;PMS5003;68436;55.068;73.284;2024-03-02T03:52:44;3.00;3.00;1.00
79038;PMS5003;68436;55.068;73.284;2024-03-02T03:55:29;2.25;2.00;2.00
79038;PMS5003;68436;55.068;73.284;2024-03-02T03:57:55;1.75;1.75;1.00
79038;PMS5003;68436;55.068;73.284;2024-03-02T04:00:21;3.00;2.00;1.25
79038;PMS5003;68436;55.068;73.284;2024-03-02T04:02:47;3.50;3.50;2.25
79038;PMS5003;68436;55.068;73.284;2024-03-02T04:05:13;3.00;3.00;2.00
79038;PMS5003;68436;55.068;73.284;2024-03-02T04:07:44;2.00;2.00;2.00
79038;PMS5003;68436;55.068;73.284;2024-03-02T04:10:10;4.00;3.00;2.00
79038;PMS5003;68436;55.068;73.284;2024-03-02T04:12:44;4.00;3.00;2.00
79038;PMS5003;68436;55.068;73.284;2024-03-02T04:15:10;2.50;2.00;1.00
79038;PMS5003;68436;55.068;73.284;2024-03-02T04:17:44;3.00;3.00;1.00
79038;PMS5003;68436;55.068;73.284;2024-03-02T04:20:10;2.75;2.00;2.00
79038;PMS5003;68436;55.068;73.284;2024-03-02T04:22:44;3.00;2.00;1.00
79038;PMS5003;68436;55.068;73.284;2024-03-02T04:25:10;2.00;2.00;1.00
79038;PMS5003;68436;55.068;73.284;2024-03-02T04:27:44;2.00;2.00;2.00
79038;PMS5003;68436;55.068;73.284;2024-03-02T04:30:10;3.00;2.00;2.00
79038;PMS5003;68436;55.068;73.284;2024-03-02T04:32:44;3.00;2.67;2.00
79038;PMS5003;68436;55.068;73.284;2024-03-02T04:35:12;3.00;3.00;1.00
79038;PMS5003;68436;55.068;73.284;2024-03-02T04:37:44;3.00;2.00;2.00
79038;PMS5003;68436;55.068;73.284;2024-03-02T04:40:10;4.00;3.00;2.00
79038;PMS5003;68436;55.068;73.284;2024-03-02T04:42:44;3.00;2.00;1.00
79038;PMS5003;68436;55.068;73.284;2024-03-02T04:45:10;3.00;2.75;1.00
79038;PMS5003;68436;55.068;73.284;2024-03-02T04:47:44;3.00;2.00;2.00
79038;PMS5003;68436;55.068;73.284;2024-03-02T04:50:10;3.00;3.00;2.00
79038;PMS5003;68436;55.068;73.284;2024-03-02T04:52:44;2.33;2.33;2.00
79038;PMS5003;68436;55.068;73.284;2024-03-02T04:55:13;2.50;1.75;1.00
79038;PMS5003;68436;55.068;73.284;2024-03-02T04:58:00;2.00;2.00;1.00
79038;PMS5003;68436;55.068;73.284;2024-03-02T05:00:26;3.00;3.00;2.00
79038;PMS5003;68436;55.068;73.284;2024-03-02T05:02:52;3.00;3.00;2.00
79038;PMS5003;68436;55.068;73.284;2024-03-02T05:05:38;5.00;4.25;3.00
79038;PMS5003;68436;55.068;73.284;2024-03-02T05:08:05;4.25;4.00;3.00
79038;PMS5003;68436;55.068;73.284;2024-03-02T05:10:31;3.00;3.00;2.00
79038;PMS5003;68436;55.068;73.284;2024-03-02T05:12:57;4.00;4.00;2.00
79038;PMS5003;68436;55.068;73.284;2024-03-02T05:15:24;4.00;4.00;2.00
79038;PMS5003;68436;55.068;73.284;2024-03-02T05:17:51;2.25;2.25;2.00
79038;PMS5003;68436;55.068;73.284;2024-03-02T05:20:17;5.00;4.00;2.00
79038;PMS5003;68436;55.068;73.284;2024-03-02T05:22:44;4.00;4.00;2.00
79038;PMS5003;68436;55.068;73.284;2024-03-02T05:25:10;3.00;3.00;2.00
79038;PMS5003;68436;55.068;73.284;2024-03-02T05:27:55;2.75;2.25;2.00
79038;PMS5003;68436;55.068;73.284;2024-03-02T05:30:21;5.00;4.00;2.00
79038;PMS5003;68436;55.068;73.284;2024-03-02T05:32:47;6.00;5.00;3.00
79038;PMS5003;68436;55.068;73.284;2024-03-02T05:35:14;6.00;5.00;3.00
79038;PMS5003;68436;55.068;73.284;2024-03-02T05:37:44;5.00;4.00;3.00
79038;PMS5003;68436;55.068;73.284;2024-03-02T05:40:10;5.00;4.00;2.00
79038;PMS5003;68436;55.068;73.284;2024-03-02T05:42:44;6.00;4.00;3.00
79038;PMS5003;68436;55.068;73.284;2024-03-02T05:45:10;4.00;4.00;2.00
79038;PMS5003;68436;55.068;73.284;2024-03-02T05:47:44;5.00;5.00;2.67
79038;PMS5003;68436;55.068;73.284;2024-03-02T05:50:10;7.25;6.00;3.00
79038;PMS5003;68436;55.068;73.284;2024-03-02T05:52:44;5.00;4.00;2.00
79038;PMS5003;68436;55.068;73.284;2024-03-02T05:55:10;5.00;5.00;3.00
79038;PMS5003;68436;55.068;73.284;2024-03-02T05:57:54;6.00;6.00;4.00
79038;PMS5003;68436;55.068;73.284;2024-03-02T06:00:33;6.00;5.00;3.00
79038;PMS5003;68436;55.068;73.284;2024-03-02T06:02:59;6.00;5.00;3.00
79038;PMS5003;68436;55.068;73.284;2024-03-02T06:05:25;5.50;5.00;4.00
79038;PMS5003;68436;55.068;73.284;2024-03-02T06:07:51;6.00;5.00;3.00
79038;PMS5003;68436;55.068;73.284;2024-03-02T06:10:17;7.00;6.00;3.00
79038;PMS5003;68436;55.068;73.284;2024-03-02T06:12:46;11.00;7.50;3.50
79038;PMS5003;68436;55.068;73.284;2024-03-02T06:15:12;6.00;5.00;3.00
79038;PMS5003;68436;55.068;73.284;2024-03-02T06:17:44;8.00;6.00;4.00
79038;PMS5003;68436;55.068;73.284;2024-03-02T06:20:10;11.00;9.00;5.00
79038;PMS5003;68436;55.068;73.284;2024-03-02T06:25:29;11.00;9.00;5.00
79038;PMS5003;68436;55.068;73.284;2024-03-02T06:27:55;11.00;8.25;4.75
79038;PMS5003;68436;55.068;73.284;2024-03-02T06:30:21;11.00;8.00;6.00
79038;PMS5003;68436;55.068;73.284;2024-03-02T06:32:47;11.67;8.67;5.67
79038;PMS5003;68436;55.068;73.284;2024-03-02T06:35:13;11.00;9.25;6.25
79038;PMS5003;68436;55.068;73.284;2024-03-02T06:37:44;10.00;9.00;5.00
79038;PMS5003;68436;55.068;73.284;2024-03-02T06:40:10;8.75;7.75;5.00
79038;PMS5003;68436;55.068;73.284;2024-03-02T06:42:44;14.00;12.00;7.00
79038;PMS5003;68436;55.068;73.284;2024-03-02T06:45:10;10.00;9.00;7.00
79038;PMS5003;68436;55.068;73.284;2024-03-02T06:47:44;14.00;11.67;7.00
79038;PMS5003;68436;55.068;73.284;2024-03-02T06:50:10;17.25;14.25;8.75
79038;PMS5003;68436;55.068;73.284;2024-03-02T06:52:44;14.00;13.00;8.00
79038;PMS5003;68436;55.068;73.284;2024-03-02T06:55:10;18.75;13.00;9.00
79038;PMS5003;68436;55.068;73.284;2024-03-02T06:57:44;17.00;14.00;8.00
79038;PMS5003;68436;55.068;73.284;2024-03-02T07:00:10;13.00;11.75;7.25
79038;PMS5003;68436;55.068;73.284;2024-03-02T07:02:44;11.67;10.33;6.00
79038;PMS5003;68436;55.068;73.284;2024-03-02T07:05:10;12.50;11.00;9.00
79038;PMS5003;68436;55.068;73.284;2024-03-02T07:07:44;15.00;12.00;7.00
79038;PMS5003;68436;55.068;73.284;2024-03-02T07:12:55;14.00;10.75;6.25
79038;PMS5003;68436;55.068;73.284;2024-03-02T07:15:21;14.25;11.25;7.00
79038;PMS5003;68436;55.068;73.284;2024-03-02T07:17:53;14.00;12.00;7.00
79038;PMS5003;68436;55.068;73.284;2024-03-02T07:20:19;14.00;12.00;7.00
79038;PMS5003;68436;55.068;73.284;2024-03-02T07:22:45;15.50;14.00;8.00
79038;PMS5003;68436;55.068;73.284;2024-03-02T07:25:11;14.00;12.00;7.00
79038;PMS5003;68436;55.068;73.284;2024-03-02T07:27:44;16.00;12.00;8.00
79038;PMS5003;68436;55.068;73.284;2024-03-02T07:30:13;14.00;12.00;7.00
79038;PMS5003;68436;55.068;73.284;2024-03-02T07:32:44;14.00;12.00;8.00
79038;PMS5003;68436;55.068;73.284;2024-03-02T07:35:14;14.00;12.00;8.00
79038;PMS5003;68436;55.068;73.284;2024-03-02T07:37:44;14.00;12.00;7.00
79038;PMS5003;68436;55.068;73.284;2024-03-02T07:40:10;11.25;9.25;6.00
79038;PMS5003;68436;55.068;73.284;2024-03-02T07:42:44;14.00;12.00;7.00
79038;PMS5003;68436;55.068;73.284;2024-03-02T07:45:11;14.00;12.00;7.00
79038;PMS5003;68436;55.068;73.284;2024-03-02T07:47:44;14.00;11.50;7.00
79038;PMS5003;68436;55.068;73.284;2024-03-02T07:52:55;13.00;11.00;7.25
79038;PMS5003;68436;55.068;73.284;2024-03-02T07:55:22;14.50;12.50;8.00
79038;PMS5003;68436;55.068;73.284;2024-03-02T07:57:50;12.00;10.00;7.00
79038;PMS5003;68436;55.068;73.284;2024-03-02T08:00:35;13.00;12.00;8.50
79038;PMS5003;68436;55.068;73.284;2024-03-02T08:03:01;13.00;10.33;7.00
79038;PMS5003;68436;55.068;73.284;2024-03-02T08:05:27;13.50;12.00;8.00
79038;PMS5003;68436;55.068;73.284;2024-03-02T08:07:53;12.75;10.00;6.00
79038;PMS5003;68436;55.068;73.284;2024-03-02T08:10:19;13.00;11.00;7.00
79038;PMS5003;68436;55.068;73.284;2024-03-02T08:12:46;11.00;9.50;5.50
79038;PMS5003;68436;55.068;73.284;2024-03-02T08:15:12;13.00;11.00;7.00
79038;PMS5003;68436;55.068;73.284;2024-03-02T08:17:44;12.00;10.00;8.00
79038;PMS5003;68436;55.068;73.284;2024-03-02T08:20:15;10.50;10.00;7.00
79038;PMS5003;68436;55.068;73.284;2024-03-02T08:22:44;13.00;11.00;8.00
79038;PMS5003;68436;55.068;73.284;2024-03-02T08:25:10;11.00;9.00;6.00
79038;PMS5003;68436;55.068;73.284;2024-03-02T08:27:44;12.00;10.00;7.00
79038;PMS5003;68436;55.068;73.284;2024-03-02T08:30:10;12.00;10.00;6.00
79038;PMS5003;68436;55.068;73.284;2024-03-02T08:32:45;11.00;9.67;6.00
79038;PMS5003;68436;55.068;73.284;2024-03-02T08:35:13;12.75;11.00;7.00
79038;PMS5003;68436;55.068;73.284;2024-03-02T08:37:44;12.00;9.00;5.00
79038;PMS5003;68436;55.068;73.284;2024-03-02T08:40:10;14.25;12.25;8.00
79038;PMS5003;68436;55.068;73.284;2024-03-02T08:42:44;12.00;11.00;8.00
79038;PMS5003;68436;55.068;73.284;2024-03-02T08:45:11;11.00;9.75;6.00
79038;PMS5003;68436;55.068;73.284;2024-03-02T08:47:44;12.00;10.50;7.00
79038;PMS5003;68436;55.068;73.284;2024-03-02T08:50:10;12.25;10.50;6.00
79038;PMS5003;68436;55.068;73.284;2024-03-02T08:52:44;12.00;11.00;7.00
79038;PMS5003;68436;55.068;73.284;2024-03-02T08:55:10;9.00;8.00;5.00
79038;PMS5003;68436;55.068;73.284;2024-03-02T08:57:44;8.33;7.33;5.00
79038;PMS5003;68436;55.068;73.284;2024-03-02T09:00:10;11.00;9.00;7.00
79038;PMS5003;68436;55.068;73.284;2024-03-02T09:02:44;9.33;8.33;5.00
79038;PMS5003;68436;55.068;73.284;2024-03-02T09:05:10;9.25;8.00;5.75
79038;PMS5003;68436;55.068;73.284;2024-03-02T09:07:44;10.00;9.00;6.00
79038;PMS5003;68436;55.068;73.284;2024-03-02T09:10:28;9.00;8.00;5.00
79038;PMS5003;68436;55.068;73.284;2024-03-02T09:12:54;10.33;10.00;7.00
79038;PMS5003;68436;55.068;73.284;2024-03-02T09:15:21;11.00;10.00;6.00
79038;PMS5003;68436;55.068;73.284;2024-03-02T09:17:47;9.33;8.00;5.00
79038;PMS5003;68436;55.068;73.284;2024-03-02T09:20:13;11.00;9.00;5.75
79038;PMS5003;68436;55.068;73.284;2024-03-02T09:22:44;10.00;8.00;5.00
79038;PMS5003;68436;55.068;73.284;2024-03-02T09:25:12;10.00;9.00;6.00
79038;PMS5003;68436;55.068;73.284;2024-03-02T09:27:44;10.00;8.00;5.00
79038;PMS5003;68436;55.068;73.284;2024-03-02T09:30:10;9.00;7.00;4.00
79038;PMS5003;68436;55.068;73.284;2024-03-02T09:32:44;10.00;8.00;5.00
79038;PMS5003;68436;55.068;73.284;2024-03-02T09:35:10;12.00;9.00;5.00
79038;PMS5003;68436;55.068;73.284;2024-03-02T09:37:44;9.00;8.00;5.00
79038;PMS5003;68436;55.068;73.284;2024-03-02T09:40:10;7.00;6.00;4.00
79038;PMS5003;68436;55.068;73.284;2024-03-02T09:42:44;7.00;6.00;4.00
79038;PMS5003;68436;55.068;73.284;2024-03-02T09:45:11;8.00;7.25;5.00
79038;PMS5003;68436;55.068;73.284;2024-03-02T09:47:44;8.00;7.50;5.00
79038;PMS5003;68436;55.068;73.284;2024-03-02T09:50:10;11.00;10.00;7.00
79038;PMS5003;68436;55.068;73.284;2024-03-02T09:52:44;11.00;9.00;6.00
79038;PMS5003;68436;55.068;73.284;2024-03-02T09:55:14;8.25;7.00;5.00
79038;PMS5003;68436;55.068;73.284;2024-03-02T09:57:44;10.50;7.00;5.00
79038;PMS5003;68436;55.068;73.284;2024-03-02T10:00:11;10.00;9.00;6.00
79038;PMS5003;68436;55.068;73.284;2024-03-02T10:02:44;9.00;8.00;4.00
79038;PMS5003;68436;55.068;73.284;2024-03-02T10:05:23;8.00;7.00;4.00
79038;PMS5003;68436;55.068;73.284;2024-03-02T10:08:07;8.20;7.20;5.00
79038;PMS5003;68436;55.068;73.284;2024-03-02T10:10:36;5.50;5.25;4.00
79038;PMS5003;68436;55.068;73.284;2024-03-02T10:13:06;9.00;8.00;5.00
79038;PMS5003;68436;55.068;73.284;2024-03-02T10:15:32;8.00;7.00;4.00
79038;PMS5003;68436;55.068;73.284;2024-03-02T10:17:59;45.50;33.50;20.00
79038;PMS5003;68436;55.068;73.284;2024-03-02T10:20:25;12.00;11.00;6.00
79038;PMS5003;68436;55.068;73.284;2024-03-02T10:22:51;10.00;9.00;5.00
79038;PMS5003;68436;55.068;73.284;2024-03-02T10:25:33;46.50;34.50;19.00
79038;PMS5003;68436;55.068;73.284;2024-03-02T10:28:00;13.50;11.50;7.00
79038;PMS5003;68436;55.068;73.284;2024-03-02T10:30:27;34.00;24.00;13.75
79038;PMS5003;68436;55.068;73.284;2024-03-02T10:32:55;22.00;16.33;8.00
79038;PMS5003;68436;55.068;73.284;2024-03-02T10:35:22;19.25;15.00;9.00
79038;PMS5003;68436;55.068;73.284;2024-03-02T10:37:49;9.80;8.60;5.60
79038;PMS5003;68436;55.068;73.284;2024-03-02T10:40:15;25.00;18.50;10.00
79038;PMS5003;68436;55.068;73.284;2024-03-02T10:42:44;17.00;13.00;7.00
79038;PMS5003;68436;55.068;73.284;2024-03-02T10:45:11;10.00;9.00;6.00
79038;PMS5003;68436;55.068;73.284;2024-03-02T10:47:44;13.00;11.00;7.00
79038;PMS5003;68436;55.068;73.284;2024-03-02T10:50:11;8.00;8.00;5.00
79038;PMS5003;68436;55.068;73.284;2024-03-02T10:52:44;9.00;7.00;3.00
79038;PMS5003;68436;55.068;73.284;2024-03-02T10:55:11;16.00;12.75;7.00
79038;PMS5003;68436;55.068;73.284;2024-03-02T10:57:51;13.00;11.00;6.00
79038;PMS5003;68436;55.068;73.284;2024-03-02T11:00:18;8.00;7.00;4.00
79038;PMS5003;68436;55.068;73.284;2024-03-02T11:03:07;8.50;7.50;4.00
79038;PMS5003;68436;55.068;73.284;2024-03-02T11:05:33;7.00;6.50;4.00
79038;PMS5003;68436;55.068;73.284;2024-03-02T11:08:06;6.00;5.00;4.00
79038;PMS5003;68436;55.068;73.284;2024-03-02T11:10:51;7.00;6.00;4.00
79038;PMS5003;68436;55.068;73.284;2024-03-02T11:13:19;9.00;7.00;4.00
79038;PMS5003;68436;55.068;73.284;2024-03-02T11:15:47;6.00;6.00;4.00
79038;PMS5003;68436;55.068;73.284;2024-03-02T11:18:14;32.00;25.00;14.00
79038;PMS5003;68436;55.068;73.284;2024-03-02T11:20:41;29.25;22.75;11.00
79038;PMS5003;68436;55.068;73.284;2024-03-02T11:23:08;12.00;11.00;7.00
79038;PMS5003;68436;55.068;73.284;2024-03-02T11:25:35;9.00;7.25;5.00
79038;PMS5003;68436;55.068;73.284;2024-03-02T11:28:04;7.00;7.00;5.00
79038;PMS5003;68436;55.068;73.284;2024-03-02T11:33:10;8.00;6.00;3.75
79038;PMS5003;68436;55.068;73.284;2024-03-02T11:35:37;5.00;5.00;4.00
79038;PMS5003;68436;55.068;73.284;2024-03-02T11:38:03;6.00;4.00;2.33
79038;PMS5003;68436;55.068;73.284;2024-03-02T11:40:30;4.50;4.00;2.50
79038;PMS5003;68436;55.068;73.284;2024-03-02T11:42:56;5.00;4.33;4.00
79038;PMS5003;68436;55.068;73.284;2024-03-02T11:45:25;6.00;5.00;3.00
79038;PMS5003;68436;55.068;73.284;2024-03-02T11:47:54;7.75;6.00;4.00
79038;PMS5003;68436;55.068;73.284;2024-03-02T11:50:30;5.00;4.00;3.00
79038;PMS5003;68436;55.068;73.284;2024-03-02T11:52:59;5.00;4.00;3.00
79038;PMS5003;68436;55.068;73.284;2024-03-02T11:55:25;8.00;7.00;5.00
79038;PMS5003;68436;55.068;73.284;2024-03-02T11:57:52;4.00;4.00;2.50
79038;PMS5003;68436;55.068;73.284;2024-03-02T12:00:19;6.00;5.00;3.00
79038;PMS5003;68436;55.068;73.284;2024-03-02T12:02:45;3.50;3.50;2.00
79038;PMS5003;68436;55.068;73.284;2024-03-02T12:05:15;7.25;6.25;4.00
79038;PMS5003;68436;55.068;73.284;2024-03-02T12:07:44;5.00;4.00;2.00
79038;PMS5003;68436;55.068;73.284;2024-03-02T12:10:10;5.00;4.25;3.00
79038;PMS5003;68436;55.068;73.284;2024-03-02T12:12:44;6.00;5.00;3.00
79038;PMS5003;68436;55.068;73.284;2024-03-02T12:15:10;7.50;5.00;3.00
79038;PMS5003;68436;55.068;73.284;2024-03-02T12:17:44;8.00;7.00;5.00
79038;PMS5003;68436;55.068;73.284;2024-03-02T12:20:31;5.00;4.25;3.00
79038;PMS5003;68436;55.068;73.284;2024-03-02T12:23:00;6.00;6.00;4.50
79038;PMS5003;68436;55.068;73.284;2024-03-02T12:25:42;4.50;4.00;3.00
79038;PMS5003;68436;55.068;73.284;2024-03-02T12:28:09;8.25;6.75;4.00
79038;PMS5003;68436;55.068;73.284;2024-03-02T12:30:44;6.00;5.75;3.00
79038;PMS5003;68436;55.068;73.284;2024-03-02T12:33:11;15.00;13.00;8.00
79038;PMS5003;68436;55.068;73.284;2024-03-02T12:35:37;14.00;11.00;6.00
79038;PMS5003;68436;55.068;73.284;2024-03-02T12:38:03;8.67;8.00;5.00
79038;PMS5003;68436;55.068;73.284;2024-03-02T12:40:48;6.00;6.00;3.25
79038;PMS5003;68436;55.068;73.284;2024-03-02T12:43:15;6.00;5.00;3.00
79038;PMS5003;68436;55.068;73.284;2024-03-02T12:45:41;7.00;6.00;3.25
79038;PMS5003;68436;55.068;73.284;2024-03-02T12:48:20;5.00;4.00;2.00
79038;PMS5003;68436;55.068;73.284;2024-03-02T12:50:46;6.00;5.25;3.00
79038;PMS5003;68436;55.068;73.284;2024-03-02T12:53:15;6.00;6.00;3.75
79038;PMS5003;68436;55.068;73.284;2024-03-02T12:55:42;5.25;4.00;2.00
79038;PMS5003;68436;55.068;73.284;2024-03-02T12:58:19;5.00;4.50;3.00
79038;PMS5003;68436;55.068;73.284;2024-03-02T13:00:46;4.75;4.50;2.50
79038;PMS5003;68436;55.068;73.284;2024-03-02T13:03:35;6.00;5.00;3.00
79038;PMS5003;68436;55.068;73.284;2024-03-02T13:06:01;7.00;5.00;3.00
79038;PMS5003;68436;55.068;73.284;2024-03-02T13:08:27;4.00;3.00;2.00
79038;PMS5003;68436;55.068;73.284;2024-03-02T13:10:54;5.00;5.00;3.00
79038;PMS5003;68436;55.068;73.284;2024-03-02T13:13:20;4.67;4.00;2.00
79038;PMS5003;68436;55.068;73.284;2024-03-02T13:16:01;6.00;5.00;3.00
79038;PMS5003;68436;55.068;73.284;2024-03-02T13:18:28;5.00;4.33;3.00
79038;PMS5003;68436;55.068;73.284;2024-03-02T13:20:55;6.25;5.00;3.00
79038;PMS5003;68436;55.068;73.284;2024-03-02T13:23:21;7.00;6.00;3.00
79038;PMS5003;68436;55.068;73.284;2024-03-02T13:25:48;7.00;6.00;3.00
79038;PMS5003;68436;55.068;73.284;2024-03-02T13:28:14;8.00;6.00;4.00
79038;PMS5003;68436;55.068;73.284;2024-03-02T13:30:57;6.00;6.00;3.00
79038;PMS5003;68436;55.068;73.284;2024-03-02T13:36:08;6.25;5.00;3.00
79038;PMS5003;68436;55.068;73.284;2024-03-02T13:38:34;6.00;5.00;2.00
79038;PMS5003;68436;55.068;73.284;2024-03-02T13:41:00;5.00;4.00;3.00
79038;PMS5003;68436;55.068;73.284;2024-03-02T13:43:41;6.00;5.00;4.00
79038;PMS5003;68436;55.068;73.284;2024-03-02T13:46:07;6.00;5.00;3.25
79038;PMS5003;68436;55.068;73.284;2024-03-02T13:48:33;9.00;7.00;4.00
79038;PMS5003;68436;55.068;73.284;2024-03-02T13:50:59;7.00;5.00;3.00
79038;PMS5003;68436;55.068;73.284;2024-03-02T13:53:25;7.00;6.00;4.00
79038;PMS5003;68436;55.068;73.284;2024-03-02T13:55:52;9.00;8.00;5.00
79038;PMS5003;68436;55.068;73.284;2024-03-02T13:58:19;12.00;9.67;6.00
79038;PMS5003;68436;55.068;73.284;2024-03-02T14:01:03;13.75;11.25;6.75
79038;PMS5003;68436;55.068;73.284;2024-03-02T14:03:30;13.00;11.33;6.00
79038;PMS5003;68436;55.068;73.284;2024-03-02T14:05:56;12.00;10.00;6.00
79038;PMS5003;68436;55.068;73.284;2024-03-02T14:08:23;11.00;9.00;6.00
79038;PMS5003;68436;55.068;73.284;2024-03-02T14:10:49;9.75;9.00;5.00
79038;PMS5003;68436;55.068;73.284;2024-03-02T14:13:15;13.00;11.00;7.00
79038;PMS5003;68436;55.068;73.284;2024-03-02T14:15:41;10.00;9.00;6.00
79038;PMS5003;68436;55.068;73.284;2024-03-02T14:18:08;11.00;9.00;6.33
79038;PMS5003;68436;55.068;73.284;2024-03-02T14:20:37;9.00;8.25;5.00
79038;PMS5003;68436;55.068;73.284;2024-03-02T14:23:21;11.00;8.33;5.00
79038;PMS5003;68436;55.068;73.284;2024-03-02T14:25:47;24.00;19.00;10.25
79038;PMS5003;68436;55.068;73.284;2024-03-02T14:28:13;51.00;37.00;19.00
79038;PMS5003;68436;55.068;73.284;2024-03-02T14:30:42;36.00;26.00;14.25
79038;PMS5003;68436;55.068;73.284;2024-03-02T14:33:08;33.00;24.33;12.67
79038;PMS5003;68436;55.068;73.284;2024-03-02T14:35:34;44.00;33.25;18.50
79038;PMS5003;68436;55.068;73.284;2024-03-02T14:38:02;27.67;21.33;12.00